UGSB/BUS METAR and TAF weather

Enter ICAO airport designator
Station Type Date Time Source
UGSB METAR 2018/12/11 23:00 UTC NOAA

UGSB 112300Z 13012KT 9999 BKN071 12/10 Q1013 R13/2///55 NOSIG


Station Type Date Time Source
UGSB Decoded METAR 2018/12/11 23:00 UTC NOAA

Station name not available
Dec 11, 2018 - 06:00 PM EST / 2018.12.11 2300 UTC
Wind: from the SE (130 degrees) at 14 MPH (12 KT):0
Visibility: greater than 7 mile(s):0
Sky conditions: mostly cloudy
Temperature: 53 F (12 C)
Dew Point: 50 F (10 C)
Relative Humidity: 87%
Pressure (altimeter): 29.91 in. Hg (1013 hPa)
ob: UGSB 112300Z 13012KT 9999 BKN071 12/10 Q1013 R13/2///55 NOSIG
cycle: 23

Station Type Date Time Source
UGSB TAF 2018/12/11 18:03 UTC NOAA

TAF UGSB 111700Z 1118/1218 12012KT 9999 FEW025CB BKN100 TX13/1118Z TN11/1202Z
TEMPO 1118/1124 VRB10KT 5000 TSRA SCT013 BKN023CB PROB40
TEMPO 1200/1208 5000 SHRA BKN017CB
BECMG 1208/1209 25013KT 7000 -SHRA SCT015 BKN025CB
TEMPO 1209/1218 VRB25KT 4000 TSRA SCT010 BKN020CB


Example: see airport list